SBBGSBPA

Guest
Details From SBBG - Comandante Gustavo Kraemer
To SBPA - Salgado Filho
Flight Number -
Tags Generated
Created
Modified
Stats Distance 173 nm / 321 km
Max Altitude 0 ft / 0 m
Waypoints 2
Social Downloads 2
Likes 0
Share VATSIM

Download

Looking for another format? Having issues loading an existing format? Contact us
Advertisement - Login to hide

Notes

Generated

Route

SBBG SBPA

ID Type Via Altitude Latitude Longitude Leg Dist Tot Dist Heading (true) Name
O SBBG APT - 0 ft / 0 m -31.38693˚ -54.11834˚ - 0 nm - -
O SBPA APT - 0 ft / 0 m -29.99414˚ -51.18327˚ 173 nm 173 nm 62° / 60° -

Altitude Profile

Advertisement - Login to hide

Weather


0- 5 10 15 20 25 30 35+ Temperature / ° C

Clouds and Precipitation
Forecast for 2017-12-14 18:00 UTC. Updated 2 hours ago

Ground ~20,000 ft ~40,000 ft Winds

SBBG

Details ICAO SBBG (BGX)
Name Comandante Gustavo Kraemer
Region Brazil
Timezone America/Sao_Paulo (UTC-2.0)
Stats Elevation 600 ft / 183 m (AMSL)
Location -31.390307° -54.112804°
Runways 2
Magnetic Variation 14.186° W

METAR

SBBG 141400Z 30011KT 9999 FEW027 BKN100 27/16 Q1013

Decode

TAF

Not found

Departure Runways

ID Width Length Bearing (true) Bearing (mag) Surface Threshold Offset Overrun Length
06 98 ft / 30 m 4,922 ft / 1,500 m 46.09° 60.28° Concrete 0 ft / 0 m 0 ft / 0 m
14 178 ft / 54 m 3,865 ft / 1,178 m 126.65° 140.84° Grass 0 ft / 0 m 0 ft / 0 m
24 98 ft / 30 m 4,922 ft / 1,500 m 226.08° 240.27° Concrete 0 ft / 0 m 0 ft / 0 m
32 178 ft / 54 m 3,865 ft / 1,178 m 306.64° 320.83° Grass 0 ft / 0 m 0 ft / 0 m

SBPA

Details ICAO SBPA (POA)
Name Salgado Filho
Region Brazil
Timezone America/Sao_Paulo (UTC-2.0)
Stats Elevation 11 ft / 3 m (AMSL)
Location -29.994428° -51.171426°
Runways 1
Magnetic Variation 16.878° W

METAR

SBPA 141500Z 29010KT 9999 FEW045 32/21 Q1011

Decode

TAF

Not found

Destination Runways

ID Width Length Bearing (true) Bearing (mag) Surface Threshold Offset Overrun Length
11 138 ft / 42 m 7,487 ft / 2,282 m 91.60° 108.48° Asphalt 0 ft / 0 m 230 ft / 70 m
29 138 ft / 42 m 7,487 ft / 2,282 m 271.59° 288.47° Asphalt 0 ft / 0 m 197 ft / 60 m

Approach Navaids

Runway Type Ident Frequency Range Bearing (true) Bearing (mag) Slope Elevation
11 Localiser IPA 110.30 MHz 18 nm / 33 km 90.92° 107.80° - 11 ft / 3 m (AMSL)
11 Glidescope IPA 110.30 MHz 10 nm / 19 km 91.60° 108.48° 3.00° 11 ft / 3 m (AMSL)